Time;durP1;ratioP1;P1;durP2;ratioP2;P2;SDS_P1;SDS_P2;PMS_P1;PMS_P2;Temp;Humidity;BMP_temperature;BMP_pressure;BME280_temperature;BME280_humidity;BME280_pressure;Samples;Min_cycle;Max_cycle;Signal;HPM_P1;HPM_P2
2022/05/10 00:01:55;;;;;;;24.50;23.00;;;;;;;;;;5075102;28;20420;-91
2022/05/10 00:04:23;;;;;;;22.80;21.50;;;;;;;;;;5074912;28;20457;-90
2022/05/10 00:06:51;;;;;;;24.00;22.50;;;;;;;;;;5074877;28;20509;-91
2022/05/10 00:09:20;;;;;;;23.90;22.60;;;;;;;;;;5074595;28;20461;-91
2022/05/10 00:11:48;;;;;;;22.60;21.30;;;;;;;;;;5075006;28;20432;-91
2022/05/10 00:14:15;;;;;;;23.90;22.47;;;;;;;;;;5075075;28;20455;-91
2022/05/10 00:16:45;;;;;;;24.00;22.43;;;;;;;;;;5074603;28;20764;-90
2022/05/10 00:19:14;;;;;;;23.53;22.23;;;;;;;;;;5074550;28;20470;-91
2022/05/10 00:21:41;;;;;;;23.37;21.97;;;;;;;;;;5074415;28;20438;-89
2022/05/10 00:24:09;;;;;;;23.70;22.20;;;;;;;;;;5074702;28;20450;-90
2022/05/10 00:26:37;;;;;;;22.80;21.60;;;;;;;;;;5074084;28;20486;-91
2022/05/10 00:29:04;;;;;;;22.50;21.17;;;;;;;;;;5074375;28;20458;-91
2022/05/10 00:31:32;;;;;;;23.03;21.70;;;;;;;;;;5074675;28;20458;-91
2022/05/10 00:34:02;;;;;;;23.40;22.00;;;;;;;;;;5074076;28;20430;-90
2022/05/10 00:36:29;;;;;;;22.80;21.50;;;;;;;;;;5074388;28;20466;-91
2022/05/10 00:38:57;;;;;;;22.53;21.33;;;;;;;;;;5073935;28;20451;-90
2022/05/10 00:41:27;;;;;;;23.20;21.90;;;;;;;;;;5073742;28;20851;-91
2022/05/10 00:43:57;;;;;;;22.57;21.27;;;;;;;;;;5074109;28;20458;-91
2022/05/10 00:46:26;;;;;;;22.10;20.80;;;;;;;;;;5073334;28;20430;-90
2022/05/10 00:48:57;;;;;;;22.27;20.97;;;;;;;;;;5074111;28;20425;-90
2022/05/10 00:51:36;;;;;;;23.73;22.23;;;;;;;;;;5073785;28;20489;-91
2022/05/10 00:54:06;;;;;;;23.60;22.10;;;;;;;;;;5074030;28;20453;-90
2022/05/10 00:56:39;;;;;;;23.77;22.43;;;;;;;;;;5074140;28;20459;-91
2022/05/10 00:59:12;;;;;;;23.70;22.30;;;;;;;;;;5074000;28;20461;-91
2022/05/10 01:01:40;;;;;;;24.63;23.23;;;;;;;;;;5073939;28;20441;-90
2022/05/10 01:04:14;;;;;;;23.63;22.10;;;;;;;;;;5073890;28;20743;-90
2022/05/10 01:06:47;;;;;;;23.70;22.33;;;;;;;;;;5073783;28;20501;-90
2022/05/10 01:09:18;;;;;;;23.40;22.10;;;;;;;;;;5073999;28;20916;-91
2022/05/10 01:11:48;;;;;;;23.50;22.10;;;;;;;;;;5074002;28;20443;-91
2022/05/10 01:14:18;;;;;;;24.13;22.63;;;;;;;;;;5073983;28;20459;-91
2022/05/10 01:16:45;;;;;;;24.03;22.47;;;;;;;;;;5073992;28;20441;-90
2022/05/10 01:19:14;;;;;;;24.03;22.70;;;;;;;;;;5073782;28;21134;-91
2022/05/10 01:21:56;;;;;;;22.73;21.53;;;;;;;;;;5073851;28;20450;-91
2022/05/10 01:24:57;;;;;;;24.93;23.43;;;;;;;;;;5073674;28;20475;-91
2022/05/10 01:27:39;;;;;;;22.83;21.60;;;;;;;;;;4992482;28;20484;-91
2022/05/10 01:30:10;;;;;;;24.27;22.87;;;;;;;;;;4992981;28;20480;-90
2022/05/10 01:35:22;;;;;;;23.73;22.40;;;;;;;;;;4981911;28;20430;-91
2022/05/10 01:37:52;;;;;;;23.30;22.07;;;;;;;;;;4992725;28;20462;-90
2022/05/10 01:40:22;;;;;;;23.37;21.97;;;;;;;;;;4992613;28;20932;-90
2022/05/10 01:42:50;;;;;;;23.30;21.80;;;;;;;;;;4992600;28;20428;-91
2022/05/10 01:45:23;;;;;;;24.03;22.47;;;;;;;;;;4992503;28;20529;-90
2022/05/10 01:47:51;;;;;;;23.30;22.10;;;;;;;;;;4992187;28;20591;-90
2022/05/10 01:50:23;;;;;;;23.97;22.60;;;;;;;;;;4992145;28;20488;-91
2022/05/10 01:52:52;;;;;;;24.03;22.53;;;;;;;;;;4976411;28;20420;-91
2022/05/10 01:55:25;;;;;;;23.10;21.70;;;;;;;;;;4992746;28;20461;-90
2022/05/10 01:57:54;;;;;;;23.20;21.97;;;;;;;;;;5019779;28;20877;-91
2022/05/10 02:00:24;;;;;;;23.20;21.90;;;;;;;;;;5059712;28;20561;-92
2022/05/10 02:02:53;;;;;;;23.37;21.97;;;;;;;;;;5059580;28;20450;-91
2022/05/10 02:05:24;;;;;;;23.90;22.50;;;;;;;;;;5059708;28;20462;-91
2022/05/10 02:07:52;;;;;;;24.17;22.70;;;;;;;;;;5076938;28;20493;-91
2022/05/10 02:10:24;;;;;;;24.13;22.53;;;;;;;;;;5077041;28;20532;-91
2022/05/10 02:12:56;;;;;;;23.90;22.50;;;;;;;;;;5077223;28;20438;-91
2022/05/10 02:15:28;;;;;;;23.27;21.97;;;;;;;;;;5059417;28;20449;-91
2022/05/10 02:17:59;;;;;;;23.67;22.17;;;;;;;;;;5076789;28;20916;-91
2022/05/10 02:20:29;;;;;;;23.80;22.37;;;;;;;;;;5076620;28;20446;-90
2022/05/10 02:23:00;;;;;;;24.27;22.70;;;;;;;;;;5076665;28;20537;-91
2022/05/10 02:25:29;;;;;;;24.33;22.83;;;;;;;;;;5076829;28;20450;-90
2022/05/10 02:27:59;;;;;;;24.17;22.87;;;;;;;;;;5076501;28;20829;-91
2022/05/10 02:30:30;;;;;;;23.00;21.70;;;;;;;;;;5076536;28;20950;-91
2022/05/10 02:33:09;;;;;;;23.53;22.13;;;;;;;;;;5058878;28;20503;-91
2022/05/10 02:35:40;;;;;;;23.17;21.80;;;;;;;;;;5058868;28;20499;-91
2022/05/10 02:38:10;;;;;;;22.40;21.20;;;;;;;;;;5076663;28;20496;-91
2022/05/10 02:40:41;;;;;;;24.23;22.83;;;;;;;;;;5076284;28;20427;-91
2022/05/10 02:43:09;;;;;;;23.83;22.23;;;;;;;;;;5076472;28;20922;-91
2022/05/10 02:45:39;;;;;;;24.60;23.13;;;;;;;;;;5076216;28;20513;-91
2022/05/10 02:48:06;;;;;;;23.97;22.60;;;;;;;;;;5076036;28;20474;-91
2022/05/10 02:50:35;;;;;;;23.30;22.07;;;;;;;;;;5076150;28;20486;-90
2022/05/10 02:53:02;;;;;;;23.97;22.57;;;;;;;;;;5076526;28;20462;-91
2022/05/10 02:55:33;;;;;;;24.20;22.70;;;;;;;;;;5076364;28;20519;-91
2022/05/10 02:58:02;;;;;;;24.63;23.07;;;;;;;;;;5076221;28;20460;-91
2022/05/10 03:00:30;;;;;;;24.43;22.80;;;;;;;;;;5075960;28;20455;-91
2022/05/10 03:03:01;;;;;;;23.20;21.90;;;;;;;;;;5076237;28;20425;-90
2022/05/10 03:05:28;;;;;;;23.33;22.03;;;;;;;;;;5075961;28;20776;-91
2022/05/10 03:07:56;;;;;;;23.70;22.10;;;;;;;;;;5075158;28;20489;-91
2022/05/10 03:10:23;;;;;;;23.23;21.93;;;;;;;;;;5075907;28;20430;-91
2022/05/10 03:12:51;;;;;;;23.43;22.10;;;;;;;;;;5075825;28;20438;-91
2022/05/10 03:15:18;;;;;;;23.50;22.10;;;;;;;;;;5075727;28;20405;-90
2022/05/10 03:17:45;;;;;;;23.47;22.03;;;;;;;;;;5075841;28;20858;-91
2022/05/10 03:20:14;;;;;;;24.47;23.10;;;;;;;;;;5075868;28;20445;-91
2022/05/10 03:22:42;;;;;;;24.00;22.43;;;;;;;;;;5075499;28;20453;-91
2022/05/10 03:25:09;;;;;;;25.27;23.63;;;;;;;;;;5057812;28;20445;-91
2022/05/10 03:27:37;;;;;;;24.67;23.37;;;;;;;;;;5075440;28;20478;-90
2022/05/10 03:30:05;;;;;;;24.00;22.60;;;;;;;;;;5075754;28;20458;-91
2022/05/10 03:32:33;;;;;;;25.10;23.60;;;;;;;;;;5075444;28;20501;-91
2022/05/10 03:35:00;;;;;;;24.43;23.00;;;;;;;;;;5075867;28;20867;-91
2022/05/10 03:37:31;;;;;;;26.00;24.40;;;;;;;;;;5075119;28;20473;-91
2022/05/10 03:39:59;;;;;;;25.50;23.90;;;;;;;;;;5074948;28;20774;-91
2022/05/10 03:42:27;;;;;;;24.20;22.50;;;;;;;;;;5057358;28;20449;-91
2022/05/10 03:44:54;;;;;;;25.57;23.97;;;;;;;;;;5075127;28;20505;-91
2022/05/10 03:47:22;;;;;;;24.80;23.23;;;;;;;;;;5075103;28;20443;-91
2022/05/10 03:49:49;;;;;;;24.93;23.33;;;;;;;;;;5074888;28;20486;-88
2022/05/10 03:52:17;;;;;;;24.37;22.97;;;;;;;;;;5074926;28;20512;-88
2022/05/10 03:54:46;;;;;;;24.90;23.37;;;;;;;;;;5075132;28;20425;-88
2022/05/10 03:57:14;;;;;;;23.90;22.50;;;;;;;;;;5075097;28;20431;-87
2022/05/10 03:59:42;;;;;;;24.20;22.80;;;;;;;;;;5075043;28;20489;-88
2022/05/10 04:02:11;;;;;;;23.93;22.50;;;;;;;;;;5074699;28;20405;-88
2022/05/10 04:04:39;;;;;;;24.50;23.10;;;;;;;;;;5074530;28;20907;-88
2022/05/10 04:07:06;;;;;;;24.50;23.00;;;;;;;;;;5074619;28;20424;-87
2022/05/10 04:09:34;;;;;;;24.37;22.57;;;;;;;;;;5074020;28;20497;-87
2022/05/10 04:12:03;;;;;;;24.13;22.53;;;;;;;;;;5074358;28;20434;-88
2022/05/10 04:14:31;;;;;;;24.13;22.63;;;;;;;;;;5075009;28;20486;-88
2022/05/10 04:16:58;;;;;;;24.33;22.83;;;;;;;;;;5074711;28;20416;-88
2022/05/10 04:19:26;;;;;;;24.30;22.60;;;;;;;;;;5074021;28;20421;-88
2022/05/10 04:21:53;;;;;;;24.50;22.80;;;;;;;;;;5074244;28;20435;-86
2022/05/10 04:24:20;;;;;;;24.60;23.00;;;;;;;;;;5074169;28;20806;-88
2022/05/10 04:26:49;;;;;;;25.27;23.77;;;;;;;;;;5074373;28;20477;-88
2022/05/10 04:29:18;;;;;;;23.80;22.40;;;;;;;;;;5074375;28;20515;-88
2022/05/10 04:31:45;;;;;;;25.33;23.57;;;;;;;;;;5074247;28;20916;-88
2022/05/10 04:34:13;;;;;;;23.80;22.50;;;;;;;;;;5073988;28;20851;-88
2022/05/10 04:36:40;;;;;;;25.03;23.53;;;;;;;;;;5074220;28;20940;-88
2022/05/10 04:39:08;;;;;;;24.87;23.47;;;;;;;;;;5073956;28;20614;-88
2022/05/10 04:41:37;;;;;;;24.07;22.47;;;;;;;;;;5074153;28;20409;-87
2022/05/10 04:44:05;;;;;;;26.50;24.90;;;;;;;;;;5074087;28;20458;-88
2022/05/10 04:46:35;;;;;;;25.23;23.73;;;;;;;;;;5074067;28;20507;-88
2022/05/10 04:49:02;;;;;;;24.17;22.43;;;;;;;;;;5073694;28;20495;-88
2022/05/10 04:51:30;;;;;;;24.70;23.10;;;;;;;;;;5074391;28;20456;-88
2022/05/10 04:53:57;;;;;;;24.80;23.20;;;;;;;;;;5074615;28;20405;-87
2022/05/10 04:56:25;;;;;;;25.47;23.97;;;;;;;;;;5073561;28;20459;-87
2022/05/10 04:58:54;;;;;;;24.87;23.37;;;;;;;;;;5073738;28;20432;-89
2022/05/10 05:01:25;;;;;;;24.83;23.37;;;;;;;;;;5073825;28;20452;-88
2022/05/10 05:03:56;;;;;;;24.80;23.40;;;;;;;;;;5073291;28;20450;-88
2022/05/10 05:06:24;;;;;;;25.97;24.47;;;;;;;;;;5074099;28;20451;-88
2022/05/10 05:08:52;;;;;;;24.57;23.17;;;;;;;;;;5073905;28;20926;-88
2022/05/10 05:11:19;;;;;;;24.53;23.13;;;;;;;;;;5073855;28;20434;-88
2022/05/10 05:13:46;;;;;;;24.80;23.20;;;;;;;;;;5073360;28;20462;-87
2022/05/10 05:16:14;;;;;;;24.07;22.67;;;;;;;;;;5073888;28;20434;-88
2022/05/10 05:18:41;;;;;;;24.40;22.80;;;;;;;;;;5073999;28;20445;-88
2022/05/10 05:21:10;;;;;;;25.80;24.10;;;;;;;;;;5074144;28;20856;-86
2022/05/10 05:23:38;;;;;;;24.63;23.13;;;;;;;;;;5073708;28;20428;-88
2022/05/10 05:26:05;;;;;;;24.80;23.50;;;;;;;;;;5073946;28;20767;-88
2022/05/10 05:28:33;;;;;;;26.93;25.23;;;;;;;;;;5073705;28;20517;-88
2022/05/10 05:31:00;;;;;;;25.47;23.97;;;;;;;;;;5074521;28;20457;-90
2022/05/10 05:33:28;;;;;;;24.50;23.10;;;;;;;;;;5077882;28;20458;-90
2022/05/10 05:35:55;;;;;;;24.60;23.10;;;;;;;;;;5078002;28;20433;-90
2022/05/10 05:38:26;;;;;;;24.47;23.07;;;;;;;;;;5077803;28;20812;-90
2022/05/10 05:40:53;;;;;;;26.13;24.23;;;;;;;;;;5043686;28;20481;-89
2022/05/10 05:43:22;;;;;;;25.77;24.27;;;;;;;;;;5077456;28;20474;-89
2022/05/10 05:45:49;;;;;;;25.47;23.90;;;;;;;;;;5077755;28;20454;-89
2022/05/10 05:48:17;;;;;;;25.90;24.37;;;;;;;;;;5077662;28;20474;-89
2022/05/10 05:50:44;;;;;;;25.33;23.67;;;;;;;;;;5077274;28;20858;-90
2022/05/10 05:53:11;;;;;;;25.87;24.27;;;;;;;;;;5077427;28;20459;-90
2022/05/10 05:55:42;;;;;;;25.50;24.00;;;;;;;;;;5077566;28;20504;-90
2022/05/10 05:58:10;;;;;;;27.20;25.37;;;;;;;;;;5077715;28;20450;-90
2022/05/10 06:00:39;;;;;;;24.93;23.50;;;;;;;;;;5059237;28;20450;-89
2022/05/10 06:03:06;;;;;;;24.53;23.03;;;;;;;;;;5077535;28;20470;-90
2022/05/10 06:05:34;;;;;;;25.20;23.70;;;;;;;;;;5076844;28;20482;-89
2022/05/10 06:08:03;;;;;;;25.03;23.57;;;;;;;;;;5077022;28;20458;-90
2022/05/10 06:10:30;;;;;;;24.53;23.03;;;;;;;;;;5076980;28;20931;-90
2022/05/10 06:13:03;;;;;;;26.67;24.70;;;;;;;;;;5076988;28;20957;-90
2022/05/10 06:15:31;;;;;;;26.40;24.70;;;;;;;;;;5077244;28;20430;-90
2022/05/10 06:17:58;;;;;;;25.37;23.67;;;;;;;;;;5059539;28;20438;-90
2022/05/10 06:20:26;;;;;;;25.57;23.73;;;;;;;;;;5077144;28;20900;-90
2022/05/10 06:22:54;;;;;;;25.57;23.87;;;;;;;;;;5059293;28;20855;-90
2022/05/10 06:25:23;;;;;;;24.10;22.70;;;;;;;;;;5076656;28;20463;-90
2022/05/10 06:27:51;;;;;;;24.50;23.10;;;;;;;;;;5058953;28;20481;-90
2022/05/10 06:30:21;;;;;;;25.60;23.90;;;;;;;;;;5076679;28;20478;-91
2022/05/10 06:32:48;;;;;;;26.83;25.20;;;;;;;;;;5077113;28;20882;-90
2022/05/10 06:35:16;;;;;;;26.80;25.00;;;;;;;;;;5076921;28;20442;-89
2022/05/10 06:40:28;;;;;;;25.97;24.33;;;;;;;;;;5076346;28;20452;-89
2022/05/10 06:42:59;;;;;;;26.80;25.20;;;;;;;;;;5075720;28;20434;-90
2022/05/10 06:45:28;;;;;;;25.40;23.90;;;;;;;;;;5076443;28;20560;-91
2022/05/10 06:47:55;;;;;;;25.93;24.27;;;;;;;;;;5076890;28;20441;-90
2022/05/10 06:50:24;;;;;;;25.70;24.13;;;;;;;;;;5076028;28;20505;-90
2022/05/10 06:52:54;;;;;;;25.70;24.17;;;;;;;;;;5076426;28;20439;-91
2022/05/10 06:55:22;;;;;;;25.73;24.20;;;;;;;;;;5076618;28;20447;-90
2022/05/10 06:57:50;;;;;;;25.97;24.40;;;;;;;;;;5076396;28;20470;-90
2022/05/10 07:00:18;;;;;;;26.10;24.37;;;;;;;;;;5076025;28;20442;-91
2022/05/10 07:02:47;;;;;;;27.70;25.90;;;;;;;;;;5076282;28;20817;-89
2022/05/10 07:05:15;;;;;;;26.60;25.00;;;;;;;;;;5076248;28;21048;-93
2022/05/10 07:07:43;;;;;;;26.30;24.60;;;;;;;;;;5075821;28;20470;-91
2022/05/10 07:10:11;;;;;;;26.50;24.73;;;;;;;;;;5075823;28;20536;-91
2022/05/10 07:12:38;;;;;;;27.57;25.83;;;;;;;;;;5076097;28;20761;-91
2022/05/10 07:15:07;;;;;;;25.60;24.10;;;;;;;;;;5075886;28;20450;-91
2022/05/10 07:17:34;;;;;;;27.10;25.40;;;;;;;;;;5076049;28;20442;-91
2022/05/10 07:20:04;;;;;;;27.90;26.20;;;;;;;;;;5075796;28;20476;-91
2022/05/10 07:22:31;;;;;;;26.33;24.73;;;;;;;;;;5075831;28;20437;-91
2022/05/10 07:24:59;;;;;;;26.87;25.17;;;;;;;;;;5075926;28;20493;-93
2022/05/10 07:27:26;;;;;;;26.87;25.07;;;;;;;;;;5075635;28;20446;-93
2022/05/10 07:29:54;;;;;;;26.43;24.90;;;;;;;;;;5076173;28;20482;-93
2022/05/10 07:32:22;;;;;;;26.97;25.17;;;;;;;;;;5076127;28;20458;-91
2022/05/10 07:34:49;;;;;;;27.57;25.87;;;;;;;;;;5075387;28;20457;-96
2022/05/10 07:37:18;;;;;;;28.03;26.13;;;;;;;;;;5076032;28;20458;-82
2022/05/10 07:39:45;;;;;;;28.30;26.60;;;;;;;;;;5075431;28;20470;-85
2022/05/10 07:42:13;;;;;;;28.00;26.20;;;;;;;;;;5074860;28;20434;-86
2022/05/10 07:44:40;;;;;;;29.07;27.17;;;;;;;;;;5056782;28;20854;-85
2022/05/10 07:47:09;;;;;;;27.73;26.03;;;;;;;;;;5074356;28;20442;-84
2022/05/10 07:49:36;;;;;;;28.97;27.10;;;;;;;;;;5074008;28;20493;-85
2022/05/10 07:52:04;;;;;;;28.60;26.77;;;;;;;;;;5074425;28;20420;-83
2022/05/10 07:54:33;;;;;;;28.73;26.80;;;;;;;;;;5074761;28;20435;-91
2022/05/10 07:57:00;;;;;;;27.07;25.37;;;;;;;;;;5074163;28;20453;-85
2022/05/10 07:59:29;;;;;;;28.67;26.67;;;;;;;;;;5074107;28;20435;-85
2022/05/10 08:01:56;;;;;;;28.57;26.77;;;;;;;;;;5074413;28;20423;-85
2022/05/10 08:04:24;;;;;;;28.50;26.70;;;;;;;;;;5055777;28;20763;-85
2022/05/10 08:06:51;;;;;;;28.30;26.60;;;;;;;;;;5074064;28;20442;-86
2022/05/10 08:09:19;;;;;;;29.00;26.93;;;;;;;;;;5073964;28;20863;-90
2022/05/10 08:11:48;;;;;;;30.07;28.17;;;;;;;;;;5073823;28;20530;-84
2022/05/10 08:14:15;;;;;;;29.17;27.37;;;;;;;;;;5073536;28;20434;-84
2022/05/10 08:16:43;;;;;;;28.87;27.07;;;;;;;;;;5073586;28;20435;-85
2022/05/10 08:19:10;;;;;;;29.43;27.63;;;;;;;;;;5073778;28;20506;-87
2022/05/10 08:21:37;;;;;;;27.90;26.10;;;;;;;;;;5073632;28;20454;-83
2022/05/10 08:24:05;;;;;;;28.90;27.20;;;;;;;;;;5073267;28;20450;-82
2022/05/10 08:26:33;;;;;;;29.57;27.67;;;;;;;;;;5055539;28;20442;-82
2022/05/10 08:29:02;;;;;;;29.30;27.30;;;;;;;;;;5072790;28;20918;-83
2022/05/10 08:31:29;;;;;;;28.97;26.97;;;;;;;;;;5072899;28;20840;-82
2022/05/10 08:33:56;;;;;;;29.00;27.10;;;;;;;;;;5072978;28;20433;-82
2022/05/10 08:36:24;;;;;;;28.07;26.17;;;;;;;;;;5073054;28;20451;-83
2022/05/10 08:38:53;;;;;;;30.63;28.37;;;;;;;;;;5072937;28;20426;-82
2022/05/10 08:41:22;;;;;;;29.73;27.83;;;;;;;;;;5073073;28;20441;-83
2022/05/10 08:43:51;;;;;;;28.17;26.30;;;;;;;;;;5073049;28;20401;-82
2022/05/10 08:46:25;;;;;;;29.60;27.60;;;;;;;;;;5073130;28;20409;-83
2022/05/10 08:48:55;;;;;;;27.30;25.63;;;;;;;;;;5072889;28;20583;-83
2022/05/10 08:51:23;;;;;;;29.20;27.37;;;;;;;;;;5072573;28;20514;-83
2022/05/10 08:53:50;;;;;;;29.40;27.50;;;;;;;;;;5054570;28;20425;-83
2022/05/10 08:56:21;;;;;;;28.17;26.07;;;;;;;;;;5072720;28;20910;-83
2022/05/10 08:58:58;;;;;;;29.23;27.13;;;;;;;;;;5072564;28;20442;-84
2022/05/10 09:01:30;;;;;;;29.23;27.13;;;;;;;;;;5073053;28;20416;-83
2022/05/10 09:04:01;;;;;;;27.60;25.60;;;;;;;;;;5072849;28;20549;-84
2022/05/10 09:06:34;;;;;;;26.83;24.93;;;;;;;;;;5072473;28;20883;-83
2022/05/10 09:09:08;;;;;;;28.07;26.37;;;;;;;;;;5072721;28;20504;-83
2022/05/10 09:11:38;;;;;;;26.03;24.40;;;;;;;;;;5072754;28;20412;-84
2022/05/10 09:14:06;;;;;;;26.97;25.17;;;;;;;;;;5072335;28;20405;-84
2022/05/10 09:16:35;;;;;;;26.30;24.80;;;;;;;;;;5072904;28;20926;-84
2022/05/10 09:19:03;;;;;;;27.60;25.80;;;;;;;;;;5072741;28;20850;-83
2022/05/10 09:21:35;;;;;;;28.17;26.47;;;;;;;;;;5072502;28;20441;-83
2022/05/10 09:24:10;;;;;;;28.00;26.20;;;;;;;;;;5073137;28;20442;-85
2022/05/10 09:26:38;;;;;;;28.27;26.57;;;;;;;;;;5073227;28;20408;-84
2022/05/10 09:29:09;;;;;;;27.17;25.57;;;;;;;;;;5072532;28;20917;-87
2022/05/10 09:37:15;;;;;;;27.70;26.10;;;;;;;;;;5073151;28;20430;-83
2022/05/10 09:39:47;;;;;;;27.53;25.73;;;;;;;;;;5072549;28;20409;-85
2022/05/10 09:42:25;;;;;;;24.90;23.37;;;;;;;;;;5072741;28;20406;-84
2022/05/10 09:44:58;;;;;;;25.23;23.73;;;;;;;;;;5072709;28;20428;-84
2022/05/10 09:47:27;;;;;;;24.97;23.27;;;;;;;;;;5072670;28;20445;-84
2022/05/10 09:49:55;;;;;;;25.20;23.63;;;;;;;;;;5072421;28;20512;-85
2022/05/10 09:52:24;;;;;;;25.37;23.77;;;;;;;;;;5073259;28;20417;-84
2022/05/10 09:54:53;;;;;;;25.90;24.30;;;;;;;;;;5072794;28;20479;-85
2022/05/10 09:57:29;;;;;;;26.60;24.90;;;;;;;;;;5072748;28;20840;-85
2022/05/10 09:59:56;;;;;;;27.27;25.47;;;;;;;;;;5072853;28;20913;-85
2022/05/10 10:02:29;;;;;;;25.70;24.00;;;;;;;;;;5072853;28;20530;-83
2022/05/10 10:04:56;;;;;;;26.17;24.57;;;;;;;;;;5072760;28;20476;-84
2022/05/10 10:07:25;;;;;;;25.40;23.80;;;;;;;;;;5072843;28;20413;-83
2022/05/10 10:09:55;;;;;;;24.87;23.30;;;;;;;;;;5073449;28;20468;-85
2022/05/10 10:12:37;;;;;;;26.90;25.30;;;;;;;;;;5073441;28;20416;-85
2022/05/10 10:15:17;;;;;;;26.07;24.43;;;;;;;;;;5056259;28;20424;-85
2022/05/10 10:17:51;;;;;;;26.83;25.20;;;;;;;;;;5072567;28;20405;-85
2022/05/10 10:20:22;;;;;;;26.03;24.43;;;;;;;;;;5076396;28;20902;-85
2022/05/10 10:22:51;;;;;;;25.47;23.97;;;;;;;;;;5076200;28;20439;-85
2022/05/10 10:25:20;;;;;;;26.27;24.37;;;;;;;;;;5076005;28;20508;-85
2022/05/10 10:27:49;;;;;;;26.23;24.43;;;;;;;;;;5076344;28;20797;-85
2022/05/10 10:30:22;;;;;;;26.27;24.67;;;;;;;;;;5076016;28;20467;-85
2022/05/10 10:32:53;;;;;;;27.10;25.40;;;;;;;;;;5075762;28;20875;-85
2022/05/10 10:35:26;;;;;;;27.43;25.50;;;;;;;;;;5076011;28;20431;-85
2022/05/10 10:37:55;;;;;;;25.80;24.30;;;;;;;;;;5076047;28;20427;-84
2022/05/10 10:40:31;;;;;;;26.13;24.43;;;;;;;;;;5075732;28;20425;-85
2022/05/10 10:43:02;;;;;;;25.87;24.40;;;;;;;;;;5075357;28;20437;-84
2022/05/10 10:45:33;;;;;;;24.13;22.73;;;;;;;;;;5075595;28;20816;-84
2022/05/10 10:48:15;;;;;;;24.60;23.20;;;;;;;;;;5075368;28;20417;-84
2022/05/10 10:50:43;;;;;;;26.57;24.97;;;;;;;;;;5075384;28;20483;-81
2022/05/10 10:53:11;;;;;;;24.63;23.13;;;;;;;;;;5075563;28;20466;-85
2022/05/10 10:55:49;;;;;;;25.50;24.00;;;;;;;;;;5075530;28;20413;-85
2022/05/10 10:58:20;;;;;;;26.70;24.93;;;;;;;;;;5075273;28;20438;-85
2022/05/10 11:00:52;;;;;;;26.67;25.07;;;;;;;;;;5075621;28;20449;-84
2022/05/10 11:03:31;;;;;;;27.30;25.70;;;;;;;;;;5075442;28;20478;-85
2022/05/10 11:06:17;;;;;;;26.23;24.73;;;;;;;;;;5075549;28;20409;-86
2022/05/10 11:08:53;;;;;;;25.30;23.90;;;;;;;;;;5075483;28;20413;-85
2022/05/10 11:11:26;;;;;;;25.97;24.47;;;;;;;;;;5075150;28;20967;-86
2022/05/10 11:13:59;;;;;;;27.23;25.63;;;;;;;;;;5075835;28;20417;-86
2022/05/10 11:16:35;;;;;;;26.63;25.13;;;;;;;;;;5075119;28;20449;-85
2022/05/10 11:19:32;;;;;;;25.97;24.47;;;;;;;;;;5075033;28;20461;-85
2022/05/10 11:22:03;;;;;;;25.30;23.80;;;;;;;;;;5074836;28;20412;-86
2022/05/10 11:24:36;;;;;;;24.30;22.90;;;;;;;;;;5075034;28;20901;-86
2022/05/10 11:27:11;;;;;;;25.67;24.07;;;;;;;;;;5057048;28;20450;-85
2022/05/10 11:29:46;;;;;;;24.73;23.23;;;;;;;;;;5074305;28;20427;-86
2022/05/10 11:32:18;;;;;;;24.83;23.33;;;;;;;;;;5074136;28;20466;-84
2022/05/10 11:34:55;;;;;;;26.27;24.67;;;;;;;;;;5074472;28;20443;-85
2022/05/10 11:37:24;;;;;;;25.20;23.60;;;;;;;;;;5074391;28;20438;-84
2022/05/10 11:40:05;;;;;;;26.50;24.90;;;;;;;;;;5074121;28;20792;-84
2022/05/10 11:42:37;;;;;;;24.70;23.20;;;;;;;;;;5074036;28;20417;-84
2022/05/10 11:45:17;;;;;;;25.27;23.87;;;;;;;;;;5074060;28;20432;-83
2022/05/10 11:48:06;;;;;;;25.57;24.10;;;;;;;;;;5074170;28;20434;-84
2022/05/10 11:51:38;;;;;;;25.93;24.43;;;;;;;;;;5055887;28;20461;-83
2022/05/10 11:53:53;;;;;;;24.47;23.07;;;;;;;;;;5073815;28;21016;-84
2022/05/10 11:56:21;;;;;;;25.43;23.90;;;;;;;;;;5073982;28;20491;-84
2022/05/10 11:58:48;;;;;;;24.20;22.87;;;;;;;;;;5073965;28;20413;-84
2022/05/10 12:01:35;;;;;;;26.00;24.50;;;;;;;;;;5073886;28;20429;-82
2022/05/10 12:04:03;;;;;;;23.97;22.57;;;;;;;;;;5073447;28;20451;-82
2022/05/10 12:06:36;;;;;;;26.43;24.83;;;;;;;;;;5073762;28;20425;-82
2022/05/10 12:09:05;;;;;;;25.13;23.73;;;;;;;;;;5073656;28;20401;-82
2022/05/10 12:11:37;;;;;;;25.50;24.00;;;;;;;;;;5073974;28;20551;-83
2022/05/10 12:22:58;;;;;;;27.30;25.70;;;;;;;;;;5031784;28;20459;-83
2022/05/10 12:25:44;;;;;;;26.80;25.23;;;;;;;;;;5031920;28;20451;-83
2022/05/10 12:28:12;;;;;;;25.37;23.97;;;;;;;;;;5031724;28;20922;-83
2022/05/10 12:30:39;;;;;;;25.60;24.10;;;;;;;;;;5031564;28;20454;-84
2022/05/10 12:33:30;;;;;;;25.10;23.70;;;;;;;;;;5031634;28;20449;-83
2022/05/10 12:36:16;;;;;;;25.93;24.37;;;;;;;;;;5031618;28;20423;-83
2022/05/10 12:38:49;;;;;;;27.23;25.53;;;;;;;;;;5031334;28;20423;-82
2022/05/10 12:41:32;;;;;;;25.63;24.03;;;;;;;;;;5030533;28;20794;-83
2022/05/10 12:44:09;;;;;;;26.97;25.37;;;;;;;;;;5031621;28;20435;-83
2022/05/10 12:46:41;;;;;;;25.57;24.07;;;;;;;;;;5031616;28;20463;-83
2022/05/10 12:49:34;;;;;;;25.57;24.10;;;;;;;;;;5031802;28;20414;-83
2022/05/10 12:52:13;;;;;;;26.00;24.50;;;;;;;;;;5067071;28;20504;-83
2022/05/10 12:54:43;;;;;;;25.70;24.20;;;;;;;;;;5072034;28;20442;-83
2022/05/10 12:57:13;;;;;;;26.30;24.70;;;;;;;;;;5073122;28;20425;-85
2022/05/10 12:59:45;;;;;;;26.27;24.57;;;;;;;;;;5055052;28;20447;-85
2022/05/10 13:02:14;;;;;;;26.90;25.30;;;;;;;;;;5071889;28;20536;-83
2022/05/10 13:04:43;;;;;;;25.60;24.10;;;;;;;;;;5073337;28;20497;-84
2022/05/10 13:07:15;;;;;;;26.53;24.93;;;;;;;;;;5072755;28;20444;-83
2022/05/10 13:09:54;;;;;;;27.07;25.27;;;;;;;;;;5072722;28;20453;-83
2022/05/10 13:12:23;;;;;;;26.90;25.30;;;;;;;;;;5072679;28;21003;-84
2022/05/10 13:14:53;;;;;;;28.07;26.37;;;;;;;;;;5073093;28;20437;-84
2022/05/10 13:17:23;;;;;;;27.50;25.87;;;;;;;;;;5073257;28;20437;-84
2022/05/10 13:19:50;;;;;;;26.83;24.87;;;;;;;;;;5055158;28;20421;-84
2022/05/10 13:22:20;;;;;;;27.30;25.63;;;;;;;;;;5054972;28;20421;-83
2022/05/10 13:24:50;;;;;;;27.90;26.30;;;;;;;;;;5073246;28;20447;-84
2022/05/10 13:27:26;;;;;;;27.40;25.70;;;;;;;;;;5072957;28;21259;-84
2022/05/10 13:29:54;;;;;;;27.00;25.30;;;;;;;;;;5072771;28;20440;-82
2022/05/10 13:32:37;;;;;;;26.97;25.37;;;;;;;;;;5072518;28;20460;-83
2022/05/10 13:35:10;;;;;;;25.20;23.80;;;;;;;;;;5072879;28;20762;-84
2022/05/10 13:37:38;;;;;;;26.83;25.13;;;;;;;;;;5072607;28;20420;-84
2022/05/10 13:40:12;;;;;;;27.17;25.47;;;;;;;;;;5072999;28;20417;-83
2022/05/10 13:42:44;;;;;;;25.57;24.03;;;;;;;;;;5072325;28;20936;-83
2022/05/10 13:45:13;;;;;;;27.10;25.50;;;;;;;;;;5055026;28;20424;-83
2022/05/10 13:47:40;;;;;;;26.27;24.77;;;;;;;;;;5072366;28;20915;-83
2022/05/10 13:50:08;;;;;;;25.50;24.00;;;;;;;;;;5054492;28;20453;-84
2022/05/10 13:52:38;;;;;;;26.00;24.40;;;;;;;;;;5074131;28;20802;-83
2022/05/10 13:55:07;;;;;;;27.40;25.20;;;;;;;;;;5076490;28;20433;-83
2022/05/10 13:57:38;;;;;;;26.83;25.23;;;;;;;;;;5076290;28;20413;-83
2022/05/10 14:00:16;;;;;;;25.90;24.40;;;;;;;;;;5076060;28;20499;-83
2022/05/10 14:02:43;;;;;;;27.50;25.73;;;;;;;;;;5076709;28;20808;-83
2022/05/10 14:05:16;;;;;;;27.83;25.93;;;;;;;;;;5076179;28;20449;-83
2022/05/10 14:07:47;;;;;;;27.57;25.80;;;;;;;;;;5075920;28;20417;-83
2022/05/10 14:10:17;;;;;;;27.37;25.73;;;;;;;;;;5075819;28;20439;-83
2022/05/10 14:12:49;;;;;;;27.27;25.67;;;;;;;;;;5076192;28;20987;-83
2022/05/10 14:15:20;;;;;;;27.90;26.27;;;;;;;;;;5075661;28;20440;-83
2022/05/10 14:17:52;;;;;;;26.50;25.10;;;;;;;;;;5076009;28;20537;-84
2022/05/10 14:20:24;;;;;;;26.70;25.20;;;;;;;;;;5075636;28;20421;-83
2022/05/10 14:22:53;;;;;;;27.70;26.10;;;;;;;;;;5075508;28;20955;-84
2022/05/10 14:25:22;;;;;;;27.50;25.80;;;;;;;;;;5075892;28;20755;-83
2022/05/10 14:28:05;;;;;;;26.90;25.30;;;;;;;;;;5075604;28;20897;-83
2022/05/10 14:30:38;;;;;;;26.70;25.20;;;;;;;;;;5075741;28;20437;-84
2022/05/10 14:33:14;;;;;;;27.03;25.40;;;;;;;;;;5075515;28;20410;-83
2022/05/10 14:35:43;;;;;;;28.00;26.30;;;;;;;;;;5075792;28;20417;-83
2022/05/10 14:38:16;;;;;;;27.23;25.63;;;;;;;;;;5075986;28;20429;-83
2022/05/10 14:40:44;;;;;;;26.90;25.17;;;;;;;;;;5075462;28;20489;-83
2022/05/10 14:43:14;;;;;;;27.87;26.07;;;;;;;;;;5075622;28;20435;-83
2022/05/10 14:45:42;;;;;;;28.00;26.30;;;;;;;;;;5057131;28;20469;-83
2022/05/10 14:48:28;;;;;;;28.00;26.40;;;;;;;;;;5075463;28;20443;-83
2022/05/10 14:50:58;;;;;;;27.07;25.57;;;;;;;;;;5074962;28;20477;-83
2022/05/10 14:53:26;;;;;;;28.10;26.50;;;;;;;;;;5075200;28;20930;-82
2022/05/10 14:55:55;;;;;;;26.90;25.30;;;;;;;;;;5075276;28;20462;-83